Sindal Flyveplads, Denmark
Current Conditions -  °F | °C
As of 5:20 PM on Thursday 30 Oct 2014 (Local Time) from EKYT Reporting Station
Broken Clouds Broken Clouds  
Wind Chill:   Ceiling: 21000
Heat Index:   Visibility: 6mi
Dew Point:   Wind: 5mph
Humidity: 87%   Direction: 170°S
Pressure: 30.24"   Gusts: NA
Location:  57.5°N, 10.22°E
Report Text: EKYT 301620Z 17004KT 9999 FEW025 BKN210 08/06 Q1024
Loading
Personal Weather Stations






























Interactive Weather Map
Tropical Storm Tracking
New forecast layout! Learn more

10-Day Weather Forecast

Advertisements
Track Severe Weather on mobile